Time,TemperatureF,DewpointF,PressureIn,WindDirection,WindDirectionDegrees,WindSpeedMPH,WindSpeedGustMPH,Humidity,HourlyPrecipIn,Conditions,Clouds,dailyrainin,SoftwareType,DateUTC
2013-04-03 00:01:00,36.1,20.2,29.82,SSW,202,1.6,2.7,52,0.00,,---,0.00,VWS V14.01,2013-04-03 06:01:00,
2013-04-03 00:16:00,36.0,20.1,29.82,South,180,2.0,2.0,52,0.00,,---,0.00,VWS V14.01,2013-04-03 06:16:00,
2013-04-03 00:31:00,36.0,20.5,29.82,South,180,2.5,2.5,53,0.00,,---,0.00,VWS V14.01,2013-04-03 06:31:00,
2013-04-03 01:01:00,33.3,18.0,29.79,SSW,202,0.0,0.0,53,0.00,,---,0.00,VWS V14.01,2013-04-03 07:01:00,
2013-04-03 01:16:00,32.9,18.5,29.79,South,180,0.0,0.0,55,0.00,,---,0.00,VWS V14.01,2013-04-03 07:16:00,
2013-04-03 01:31:00,32.2,17.8,29.79,South,180,0.0,0.0,55,0.00,,---,0.00,VWS V14.01,2013-04-03 07:31:00,
2013-04-03 01:46:00,32.0,18.1,29.79,South,180,0.0,0.0,56,0.00,,---,0.00,VWS V14.01,2013-04-03 07:46:00,
2013-04-03 02:01:00,32.5,18.6,29.79,SE,135,1.6,1.6,56,0.00,,---,0.00,VWS V14.01,2013-04-03 08:01:00,
2013-04-03 02:16:00,32.9,18.9,29.79,South,180,2.7,2.7,56,0.00,,---,0.00,VWS V14.01,2013-04-03 08:16:00,
2013-04-03 02:31:00,32.2,18.3,29.79,SSE,158,2.7,2.7,56,0.00,,---,0.00,VWS V14.01,2013-04-03 08:31:00,
2013-04-03 02:46:00,33.3,19.7,29.76,East,90,2.7,2.7,57,0.00,,---,0.00,VWS V14.01,2013-04-03 08:46:00,
2013-04-03 03:01:00,32.5,18.6,29.76,South,180,2.7,2.7,56,0.00,,---,0.00,VWS V14.01,2013-04-03 09:01:00,
2013-04-03 03:16:00,31.8,18.3,29.74,ESE,112,3.4,3.4,57,0.00,,---,0.00,VWS V14.01,2013-04-03 09:16:00,
2013-04-03 03:31:00,31.3,18.2,29.74,WSW,248,0.0,3.4,58,0.00,,---,0.00,VWS V14.01,2013-04-03 09:31:00,
2013-04-03 03:46:00,30.6,17.6,29.74,ESE,112,1.3,1.3,58,0.00,,---,0.00,VWS V14.01,2013-04-03 09:46:00,
2013-04-03 04:01:00,30.6,18.0,29.74,SW,225,2.0,2.0,59,0.00,,---,0.00,VWS V14.01,2013-04-03 10:01:00,
2013-04-03 04:16:00,30.2,18.0,29.74,ENE,68,2.5,2.5,60,0.00,,---,0.00,VWS V14.01,2013-04-03 10:16:00,
2013-04-03 04:31:00,29.5,17.7,29.74,South,180,0.9,2.5,61,0.00,,---,0.00,VWS V14.01,2013-04-03 10:31:00,
2013-04-03 04:46:00,29.8,18.4,29.76,South,180,0.0,0.9,62,0.00,,---,0.00,VWS V14.01,2013-04-03 10:46:00,
2013-04-03 05:01:00,28.9,17.9,29.74,WNW,292,0.0,0.0,63,0.00,,---,0.00,VWS V14.01,2013-04-03 11:01:00,
2013-04-03 05:16:00,28.4,18.1,29.74,WNW,292,0.0,0.0,65,0.00,,---,0.00,VWS V14.01,2013-04-03 11:16:00,
2013-04-03 05:31:00,28.2,18.7,29.74,WNW,292,0.0,0.0,67,0.00,,---,0.00,VWS V14.01,2013-04-03 11:31:00,
2013-04-03 05:46:00,28.0,19.2,29.74,WNW,292,0.0,0.0,69,0.00,,---,0.00,VWS V14.01,2013-04-03 11:46:00,
2013-04-03 06:01:00,27.9,18.7,29.74,NW,315,0.0,0.0,68,0.00,,---,0.00,VWS V14.01,2013-04-03 12:01:00,
2013-04-03 06:16:00,27.7,18.9,29.74,ESE,112,0.0,0.0,69,0.00,,---,0.00,VWS V14.01,2013-04-03 12:16:00,
2013-04-03 06:31:00,27.0,17.8,29.74,NE,45,0.0,0.0,68,0.00,,---,0.00,VWS V14.01,2013-04-03 12:31:00,
2013-04-03 06:46:00,27.9,19.4,29.74,SE,135,0.0,0.0,70,0.00,,---,0.00,VWS V14.01,2013-04-03 12:46:00,
2013-04-03 07:01:00,30.7,23.8,29.74,South,180,0.0,0.0,75,0.00,,---,0.00,VWS V14.01,2013-04-03 13:01:00,
2013-04-03 07:16:00,33.3,25.6,29.74,South,180,0.0,0.0,73,0.00,,---,0.00,VWS V14.01,2013-04-03 13:16:00,
2013-04-03 07:31:00,37.8,29.6,29.74,SE,135,2.5,2.5,72,0.00,,---,0.00,VWS V14.01,2013-04-03 13:31:00,
2013-04-03 07:46:00,41.7,30.8,29.74,SE,135,2.5,2.5,65,0.00,,---,0.00,VWS V14.01,2013-04-03 13:46:00,
2013-04-03 08:01:00,47.1,33.1,29.71,SSE,158,3.4,3.4,58,0.00,,---,0.00,VWS V14.01,2013-04-03 14:01:00,
2013-04-03 08:16:00,52.9,35.3,29.71,South,180,2.5,3.4,51,0.00,,---,0.00,VWS V14.01,2013-04-03 14:16:00,
2013-04-03 08:31:00,56.5,34.3,29.71,SSW,202,2.5,2.5,43,0.00,,---,0.00,VWS V14.01,2013-04-03 14:31:00,
2013-04-03 08:46:00,59.0,34.7,29.71,SSW,202,3.1,3.1,40,0.00,,---,0.00,VWS V14.01,2013-04-03 14:46:00,
2013-04-03 09:01:00,61.0,35.9,29.71,South,180,6.3,6.3,39,0.00,,---,0.00,VWS V14.01,2013-04-03 15:01:00,
2013-04-03 09:16:00,63.1,35.8,29.71,South,180,8.5,8.5,36,0.00,,---,0.00,VWS V14.01,2013-04-03 15:16:00,
2013-04-03 09:31:00,64.9,35.2,29.68,South,180,5.8,8.5,33,0.00,,---,0.00,VWS V14.01,2013-04-03 15:31:00,
2013-04-03 09:46:00,65.7,35.8,29.68,SSW,202,10.3,10.3,33,0.00,,---,0.00,VWS V14.01,2013-04-03 15:46:00,
2013-04-03 10:01:00,66.7,36.0,29.68,SW,225,5.8,10.3,32,0.00,,---,0.00,VWS V14.01,2013-04-03 16:01:00,
2013-04-03 10:16:00,68.4,35.8,29.68,South,180,9.2,9.2,30,0.00,,---,0.00,VWS V14.01,2013-04-03 16:16:00,
2013-04-03 10:31:00,69.6,36.8,29.68,South,180,5.6,9.2,30,0.00,,---,0.00,VWS V14.01,2013-04-03 16:31:00,
2013-04-03 10:46:00,71.2,37.4,29.65,SSW,202,6.5,6.5,29,0.00,,---,0.00,VWS V14.01,2013-04-03 16:46:00,
2013-04-03 11:01:00,72.5,38.5,29.68,SSW,202,3.1,6.5,29,0.00,,---,0.00,VWS V14.01,2013-04-03 17:01:00,
2013-04-03 11:16:00,74.7,39.4,29.68,SSE,158,2.2,3.1,28,0.00,,---,0.00,VWS V14.01,2013-04-03 17:16:00,
2013-04-03 11:31:00,76.6,41.1,29.68,South,180,3.6,3.6,28,0.00,,---,0.00,VWS V14.01,2013-04-03 17:31:00,
2013-04-03 11:46:00,78.8,42.0,29.68,SE,135,1.1,3.6,27,0.00,,---,0.00,VWS V14.01,2013-04-03 17:46:00,
2013-04-03 12:01:00,80.1,43.1,29.65,NNW,338,1.1,1.1,27,0.00,,---,0.00,VWS V14.01,2013-04-03 18:01:00,
2013-04-03 12:16:00,79.2,42.3,29.68,NE,45,7.2,7.2,27,0.00,,---,0.00,VWS V14.01,2013-04-03 18:16:00,
2013-04-03 12:31:00,80.6,43.6,29.68,NE,45,3.4,7.2,27,0.00,,---,0.00,VWS V14.01,2013-04-03 18:31:00,
2013-04-03 12:46:00,81.0,43.9,29.68,NNW,338,3.8,3.8,27,0.00,,---,0.00,VWS V14.01,2013-04-03 18:46:00,
2013-04-03 13:01:00,79.2,42.3,29.68,NNE,22,3.6,3.8,27,0.00,,---,0.00,VWS V14.01,2013-04-03 19:01:00,
2013-04-03 13:16:00,79.5,42.6,29.65,North,0,3.4,3.6,27,0.00,,---,0.00,VWS V14.01,2013-04-03 19:16:00,
2013-04-03 13:31:00,80.1,43.1,29.68,North,0,2.0,3.4,27,0.00,,---,0.00,VWS V14.01,2013-04-03 19:31:00,
2013-04-03 13:46:00,80.6,43.6,29.68,NE,45,2.9,2.9,27,0.00,,---,0.00,VWS V14.01,2013-04-03 19:46:00,
2013-04-03 14:01:00,82.6,44.3,29.68,NNE,22,4.0,4.0,26,0.00,,---,0.00,VWS V14.01,2013-04-03 20:01:00,
2013-04-03 14:31:00,75.6,40.2,29.68,NE,45,6.0,6.0,28,0.00,,---,0.00,VWS V14.01,2013-04-03 20:31:00,
2013-04-03 14:46:00,77.2,41.6,29.68,NNW,338,3.4,6.0,28,0.00,,---,0.00,VWS V14.01,2013-04-03 20:46:00,
2013-04-03 15:01:00,72.9,38.8,29.68,NNW,338,3.6,3.6,29,0.00,,---,0.00,VWS V14.01,2013-04-03 21:01:00,
2013-04-03 15:16:00,75.2,39.9,29.68,North,0,2.5,3.6,28,0.00,,---,0.00,VWS V14.01,2013-04-03 21:16:00,
2013-04-03 15:31:00,70.7,36.9,29.65,NW,315,2.9,2.9,29,0.00,,---,0.00,VWS V14.01,2013-04-03 21:31:00,
2013-04-03 15:46:00,69.8,36.1,29.68,NNE,22,3.1,3.1,29,0.00,,---,0.00,VWS V14.01,2013-04-03 21:46:00,
2013-04-03 16:01:00,70.9,37.1,29.68,NNW,338,4.3,4.3,29,0.00,,---,0.00,VWS V14.01,2013-04-03 22:01:00,
2013-04-03 16:16:00,70.5,36.8,29.68,NNW,338,2.9,4.3,29,0.00,,---,0.00,VWS V14.01,2013-04-03 22:16:00,
2013-04-03 16:31:00,67.5,35.0,29.68,NNW,338,9.6,9.6,30,0.00,,---,0.00,VWS V14.01,2013-04-03 22:31:00,
2013-04-03 16:46:00,65.7,33.4,29.68,NW,315,4.7,9.6,30,0.00,,---,0.00,VWS V14.01,2013-04-03 22:46:00,
2013-04-03 17:01:00,65.5,33.3,29.71,NW,315,5.8,5.8,30,0.00,,---,0.00,VWS V14.01,2013-04-03 23:01:00,
2013-04-03 17:16:00,65.5,33.3,29.71,WNW,292,6.7,6.7,30,0.00,,---,0.00,VWS V14.01,2013-04-03 23:16:00,
2013-04-03 17:31:00,65.1,32.9,29.71,North,0,7.6,7.6,30,0.00,,---,0.00,VWS V14.01,2013-04-03 23:31:00,
2013-04-03 17:46:00,65.3,33.1,29.71,NNW,338,8.1,8.1,30,0.00,,---,0.00,VWS V14.01,2013-04-03 23:46:00,
2013-04-03 18:01:00,65.5,35.6,29.71,North,0,3.8,8.1,33,0.00,,---,0.00,VWS V14.01,2013-04-04 00:01:00,
2013-04-03 18:16:00,68.4,37.4,29.74,WNW,292,3.4,3.8,32,0.00,,---,0.00,VWS V14.01,2013-04-04 00:16:00,
2013-04-03 18:31:00,68.2,37.2,29.74,WSW,248,4.7,4.7,32,0.00,,---,0.00,VWS V14.01,2013-04-04 00:31:00,
2013-04-03 18:46:00,65.5,33.3,29.74,NNW,338,3.1,4.7,30,0.00,,---,0.00,VWS V14.01,2013-04-04 00:46:00,
2013-04-03 19:01:00,63.0,33.4,29.74,NW,315,2.7,3.1,33,0.00,,---,0.00,VWS V14.01,2013-04-04 01:01:00,
2013-04-03 19:16:00,61.0,32.4,29.74,NNW,338,0.0,2.7,34,0.00,,---,0.00,VWS V14.01,2013-04-04 01:16:00,
2013-04-03 19:31:00,60.4,32.0,29.74,NNW,338,2.9,2.9,34,0.00,,---,0.00,VWS V14.01,2013-04-04 01:31:00,
2013-04-03 19:46:00,58.8,34.6,29.76,NNW,338,3.8,3.8,40,0.00,,---,0.00,VWS V14.01,2013-04-04 01:46:00,
2013-04-03 20:01:00,57.0,35.3,29.76,NW,315,10.1,10.1,44,0.00,,---,0.00,VWS V14.01,2013-04-04 02:01:00,
2013-04-03 20:16:00,55.8,35.8,29.79,NW,315,6.3,10.1,47,0.00,,---,0.00,VWS V14.01,2013-04-04 02:16:00,
2013-04-03 20:31:00,54.1,35.9,29.79,North,0,7.4,7.4,50,0.00,,---,0.00,VWS V14.01,2013-04-04 02:31:00,
2013-04-03 20:46:00,52.9,35.3,29.82,NW,315,5.6,7.4,51,0.00,,---,0.00,VWS V14.01,2013-04-04 02:46:00,
2013-04-03 21:01:00,50.5,33.6,29.85,NE,45,4.9,5.6,52,0.00,,---,0.00,VWS V14.01,2013-04-04 03:01:00,
2013-04-03 21:16:00,49.1,32.7,29.85,NNW,338,3.4,4.9,53,0.00,,---,0.00,VWS V14.01,2013-04-04 03:16:00,
2013-04-03 21:31:00,47.8,32.0,29.88,NW,315,3.1,3.4,54,0.00,,---,0.00,VWS V14.01,2013-04-04 03:31:00,
2013-04-03 21:46:00,46.4,30.7,29.88,NW,315,10.1,10.1,54,0.00,,---,0.00,VWS V14.01,2013-04-04 03:46:00,
2013-04-03 22:01:00,45.3,30.1,29.91,NNW,338,3.4,10.1,55,0.00,,---,0.00,VWS V14.01,2013-04-04 04:01:00,
2013-04-03 22:16:00,44.2,29.5,29.91,NW,315,5.6,5.6,56,0.00,,---,0.00,VWS V14.01,2013-04-04 04:16:00,
2013-04-03 22:31:00,43.7,29.0,29.91,WNW,292,3.8,5.6,56,0.00,,---,0.00,VWS V14.01,2013-04-04 04:31:00,
2013-04-03 22:46:00,43.5,28.4,29.91,North,0,4.9,4.9,55,0.00,,---,0.00,VWS V14.01,2013-04-04 04:46:00,
2013-04-03 23:01:00,43.5,28.4,29.91,NNW,338,3.1,4.9,55,0.00,,---,0.00,VWS V14.01,2013-04-04 05:01:00,
2013-04-03 23:16:00,42.8,27.8,29.91,WNW,292,2.7,3.1,55,0.00,,---,0.00,VWS V14.01,2013-04-04 05:16:00,
2013-04-03 23:31:00,42.4,27.9,29.91,NW,315,4.9,4.9,56,0.00,,---,0.00,VWS V14.01,2013-04-04 05:31:00,
2013-04-03 23:46:00,42.1,27.5,29.91,West,270,2.2,4.9,56,0.00,,---,0.00,VWS V14.01,2013-04-04 05:46:00,